createdAt,value
2019-05-11T00:02:58.620Z,11.36
2019-05-11T00:13:32.049Z,11.35
2019-05-11T00:24:05.639Z,11.42
2019-05-11T00:34:39.220Z,11.40
2019-05-11T00:45:12.661Z,11.31
2019-05-11T00:55:46.327Z,11.10
2019-05-11T01:06:19.970Z,11.18
2019-05-11T01:16:53.712Z,11.21
2019-05-11T01:27:27.423Z,11.16
2019-05-11T01:38:00.883Z,11.19
2019-05-11T01:48:34.206Z,11.06
2019-05-11T01:59:07.678Z,11.01
2019-05-11T02:09:41.258Z,10.93
2019-05-11T02:20:14.112Z,11.31
2019-05-11T02:30:47.661Z,11.17
2019-05-11T02:41:35.795Z,11.06
2019-05-11T02:51:57.030Z,10.94
2019-05-11T03:02:30.766Z,10.83
2019-05-11T03:13:03.438Z,10.87
2019-05-11T03:23:36.864Z,10.80
2019-05-11T03:34:09.831Z,11.20
2019-05-11T03:44:43.424Z,11.74
2019-05-11T03:55:16.887Z,12.64
2019-05-11T04:05:50.507Z,13.65
2019-05-11T04:16:24.275Z,14.70
2019-05-11T04:26:57.523Z,15.90
2019-05-11T04:37:31.127Z,16.32
2019-05-11T04:48:04.456Z,17.19
2019-05-11T04:58:37.136Z,17.24
2019-05-11T05:09:11.745Z,16.40
2019-05-11T05:19:45.071Z,17.99
2019-05-11T05:30:18.316Z,18.39
2019-05-11T05:40:51.917Z,20.28
2019-05-11T05:51:25.506Z,21.14
2019-05-11T06:01:59.317Z,19.98
2019-05-11T06:12:32.879Z,18.60
2019-05-11T06:23:06.269Z,19.82
2019-05-11T06:33:39.882Z,20.54
2019-05-11T06:44:13.364Z,20.22
2019-05-11T06:54:46.890Z,21.42
2019-05-11T07:05:21.361Z,21.98
2019-05-11T07:15:54.781Z,23.43
2019-05-11T07:26:28.473Z,23.77
2019-05-11T07:37:02.133Z,22.67
2019-05-11T07:47:37.991Z,21.31
2019-05-11T07:58:11.185Z,20.34
2019-05-11T08:08:44.532Z,20.65
2019-05-11T08:19:18.719Z,24.98
2019-05-11T08:29:51.867Z,27.10
2019-05-11T08:40:24.737Z,27.54
2019-05-11T08:50:58.366Z,28.35
2019-05-11T09:01:31.825Z,29.39
2019-05-11T09:12:07.665Z,29.54
2019-05-11T09:22:40.730Z,29.52
2019-05-11T09:33:17.708Z,29.35
2019-05-11T09:43:50.213Z,30.09
2019-05-11T09:54:23.876Z,28.70
2019-05-11T10:04:57.877Z,29.04
2019-05-11T10:15:30.884Z,29.00
2019-05-11T10:26:04.458Z,29.56
2019-05-11T10:36:38.477Z,28.56
2019-05-11T10:47:12.463Z,28.79
2019-05-11T10:57:46.000Z,27.12
2019-05-11T11:08:19.569Z,28.38
2019-05-11T11:18:53.181Z,28.84
2019-05-11T11:29:28.783Z,28.95
2019-05-11T11:40:02.487Z,27.51
2019-05-11T11:50:37.734Z,28.06
2019-05-11T12:01:10.813Z,27.54
2019-05-11T12:11:44.408Z,26.84
2019-05-11T12:22:18.801Z,26.00
2019-05-11T12:32:54.367Z,26.32
2019-05-11T12:43:27.872Z,26.51
2019-05-11T12:54:01.527Z,25.74
2019-05-11T13:04:35.237Z,25.07
2019-05-11T13:15:08.892Z,24.20
2019-05-11T13:25:42.150Z,22.34
2019-05-11T13:36:15.660Z,21.21
2019-05-11T13:46:48.842Z,21.44
2019-05-11T13:57:22.365Z,22.17
2019-05-11T14:07:55.934Z,22.72
2019-05-11T14:18:29.475Z,22.81
2019-05-11T14:29:03.172Z,22.69
2019-05-11T14:39:38.337Z,22.20
2019-05-11T14:50:12.078Z,21.56
2019-05-11T15:00:45.302Z,21.60
2019-05-11T15:11:19.366Z,21.36
2019-05-11T15:21:52.185Z,21.01
2019-05-11T15:32:25.528Z,19.71
2019-05-11T15:42:59.018Z,19.28
2019-05-11T15:53:32.468Z,19.57
2019-05-11T16:04:06.047Z,19.57
2019-05-11T16:14:39.345Z,19.05
2019-05-11T16:25:12.837Z,18.42
2019-05-11T16:35:48.804Z,17.33
2019-05-11T16:46:22.128Z,16.76
2019-05-11T16:56:57.748Z,16.16
2019-05-11T17:07:30.134Z,15.65
2019-05-11T17:18:03.544Z,15.28
2019-05-11T17:28:38.494Z,15.00
2019-05-11T17:39:13.723Z,14.81
2019-05-11T17:49:57.454Z,14.55
2019-05-11T18:00:23.508Z,14.50
2019-05-11T18:10:58.640Z,14.43
2019-05-11T18:21:31.657Z,14.42
2019-05-11T18:32:05.163Z,14.33
2019-05-11T18:42:38.483Z,14.00
2019-05-11T18:53:12.007Z,13.55
2019-05-11T19:03:47.796Z,13.40
2019-05-11T19:14:21.282Z,13.19
2019-05-11T19:24:54.150Z,13.04
2019-05-11T19:35:28.658Z,12.54
2019-05-11T19:46:02.673Z,12.67
2019-05-11T19:56:37.809Z,12.39
2019-05-11T20:07:10.853Z,12.38
2019-05-11T20:17:43.873Z,12.52
2019-05-11T20:28:18.269Z,12.18
2019-05-11T20:38:51.979Z,12.18
2019-05-11T20:49:25.517Z,12.21
2019-05-11T20:59:58.938Z,12.12
2019-05-11T21:10:31.805Z,12.13
2019-05-11T21:21:05.512Z,11.56
2019-05-11T21:31:40.777Z,11.43
2019-05-11T21:42:14.486Z,10.99
2019-05-11T21:52:48.505Z,10.87
2019-05-11T22:03:21.824Z,10.84
2019-05-11T22:13:54.665Z,10.72
2019-05-11T22:24:28.386Z,10.41
2019-05-11T22:35:02.181Z,10.24
2019-05-11T22:45:38.100Z,9.96
2019-05-11T22:56:11.493Z,9.86
2019-05-11T23:06:45.120Z,9.50
2019-05-11T23:17:18.763Z,9.38
2019-05-11T23:27:52.334Z,9.57
2019-05-11T23:38:28.081Z,9.11
2019-05-11T23:49:01.713Z,9.17
2019-05-11T23:59:35.397Z,9.05
